81°F Temp
63°F Dewpoint
% Humidity
Temperature
16 MPH
26 KM/H
14 KTS
140°
South East

Wind Speed
Partly Cloudy
Conditions
Pressure 1017.62 (hPa) - 30.05 (in)
Visibility 10.0 (mi) - 16.1 (km)

Current Conditions
KCLE
Location 38(mi)
Metar :KCLE 091951Z 14014KT 10SM FEW120 OVC220 27/17 A3005 RMK AO2 SLP168 T02670172 $
Sun 9th June 15:51 pm

Airport
  Metar Aviation API Data Provided by https://www.checkwx.com/ PHP scripts by weather34.com ©2019